Time;durP1;ratioP1;P1;durP2;ratioP2;P2;SDS_P1;SDS_P2;PMS_P1;PMS_P2;Temp;Humidity;BMP_temperature;BMP_pressure;BME280_temperature;BME280_humidity;BME280_pressure;Samples;Min_cycle;Max_cycle;Signal;HPM_P1;HPM_P2
2021/04/20 00:00:00;;;;;;;15.27;10.27;;;12.00;74.00;;;;;;5076655;28;20668;-71
2021/04/20 00:02:26;;;;;;;13.73;10.50;;;11.90;74.70;;;;;;5080775;28;20303;-70
2021/04/20 00:04:53;;;;;;;18.50;11.03;;;11.90;75.50;;;;;;5070017;28;20313;-71
2021/04/20 00:07:19;;;;;;;16.53;10.03;;;11.90;76.40;;;;;;5084978;28;20253;-71
2021/04/20 00:09:45;;;;;;;13.13;9.63;;;11.80;76.60;;;;;;5076063;28;20197;-69
2021/04/20 00:12:12;;;;;;;14.87;9.97;;;11.80;77.30;;;;;;5075608;28;20328;-70
2021/04/20 00:14:38;;;;;;;12.20;9.00;;;11.70;77.90;;;;;;5072433;28;20315;-70
2021/04/20 00:17:06;;;;;;;19.23;9.60;;;11.70;79.20;;;;;;5080993;28;20211;-71
2021/04/20 00:19:33;;;;;;;14.37;9.00;;;11.70;78.80;;;;;;5076945;28;21006;-71
2021/04/20 00:21:59;;;;;;;12.87;8.47;;;11.60;79.20;;;;;;5077326;28;20271;-71
2021/04/20 00:24:25;;;;;;;14.13;7.93;;;11.60;79.80;;;;;;5067978;28;20232;-71
2021/04/20 00:26:52;;;;;;;11.70;8.17;;;11.50;80.30;;;;;;5082530;28;20201;-71
2021/04/20 00:29:18;;;;;;;10.73;7.20;;;11.50;80.80;;;;;;5077848;28;20337;-71
2021/04/20 00:31:44;;;;;;;11.77;7.23;;;11.50;81.40;;;;;;5082822;28;20227;-70
2021/04/20 00:34:12;;;;;;;9.20;6.37;;;11.40;81.60;;;;;;5079036;28;20205;-71
2021/04/20 00:36:38;;;;;;;8.40;6.43;;;11.40;82.00;;;;;;5083149;28;20259;-71
2021/04/20 00:39:05;;;;;;;8.23;6.20;;;11.30;82.00;;;;;;5085596;28;20248;-71
2021/04/20 00:41:31;;;;;;;10.43;6.60;;;11.30;82.60;;;;;;5082187;28;20299;-70
2021/04/20 00:43:58;;;;;;;7.60;5.93;;;11.30;83.00;;;;;;5086101;28;20304;-70
2021/04/20 00:46:24;;;;;;;8.33;6.10;;;11.30;83.20;;;;;;5088508;28;20223;-70
2021/04/20 00:48:51;;;;;;;8.67;6.13;;;11.20;83.30;;;;;;5075995;28;20209;-70
2021/04/20 00:51:20;;;;;;;10.33;6.93;;;11.20;83.60;;;;;;5080087;28;20207;-70
2021/04/20 00:53:47;;;;;;;8.57;6.17;;;11.20;84.10;;;;;;5085886;28;20250;-70
2021/04/20 00:56:17;;;;;;;8.47;5.93;;;11.10;84.60;;;;;;5087016;28;20220;-70
2021/04/20 00:58:44;;;;;;;10.03;5.90;;;11.10;85.00;;;;;;5085382;28;20291;-70
2021/04/20 01:01:10;;;;;;;12.50;6.70;;;11.00;85.70;;;;;;5085207;28;20247;-69
2021/04/20 01:03:37;;;;;;;12.63;6.97;;;11.00;86.10;;;;;;5075408;28;20568;-69
2021/04/20 01:06:04;;;;;;;8.63;6.43;;;11.00;87.70;;;;;;5072040;28;20216;-69
2021/04/20 01:08:31;;;;;;;7.87;6.33;;;10.90;87.50;;;;;;5088327;28;20205;-69
2021/04/20 01:10:59;;;;;;;10.20;6.40;;;10.90;88.20;;;;;;5090108;28;20235;-69
2021/04/20 01:13:28;;;;;;;9.00;6.50;;;10.90;88.80;;;;;;5091815;28;20776;-68
2021/04/20 01:15:55;;;;;;;9.03;6.40;;;10.80;89.20;;;;;;5086467;28;20733;-68
2021/04/20 01:18:24;;;;;;;8.83;6.30;;;10.80;89.90;;;;;;5084024;28;20210;-69
2021/04/20 01:20:53;;;;;;;7.40;5.67;;;10.70;90.20;;;;;;5081552;28;20212;-69
2021/04/20 01:23:27;;;;;;;9.87;5.83;;;10.70;90.40;;;;;;5079418;28;20227;-68
2021/04/20 01:25:55;;;;;;;6.73;5.93;;;10.70;90.80;;;;;;5084681;28;20211;-69
2021/04/20 01:28:22;;;;;;;7.03;5.13;;;10.70;90.90;;;;;;5084428;28;20237;-68
2021/04/20 01:30:49;;;;;;;7.80;5.20;;;10.70;91.10;;;;;;5089613;28;20196;-69
2021/04/20 01:33:16;;;;;;;9.30;5.27;;;10.70;91.40;;;;;;5075883;28;20562;-69
2021/04/20 01:35:43;;;;;;;8.60;5.47;;;10.60;91.60;;;;;;5079491;28;20642;-69
2021/04/20 01:38:10;;;;;;;9.53;6.07;;;10.60;91.80;;;;;;5083298;28;20657;-69
2021/04/20 01:40:36;;;;;;;8.07;5.33;;;10.60;92.10;;;;;;5087347;28;20229;-68
2021/04/20 01:43:03;;;;;;;9.33;6.03;;;10.60;92.20;;;;;;5082375;28;20251;-70
2021/04/20 01:45:31;;;;;;;7.07;4.80;;;10.60;92.30;;;;;;5085271;28;20209;-69
2021/04/20 01:47:58;;;;;;;7.67;5.30;;;10.60;92.30;;;;;;5085442;28;20257;-69
2021/04/20 01:50:25;;;;;;;6.40;4.73;;;10.60;92.30;;;;;;5082678;28;20254;-69
2021/04/20 01:52:53;;;;;;;7.37;5.37;;;10.60;92.70;;;;;;5088485;28;20205;-69
2021/04/20 01:55:19;;;;;;;8.33;5.27;;;10.60;92.80;;;;;;5078442;28;20201;-69
2021/04/20 01:57:49;;;;;;;5.53;4.90;;;10.50;92.80;;;;;;5078108;28;20684;-69
2021/04/20 02:00:20;;;;;;;5.80;4.57;;;10.50;92.90;;;;;;5078768;28;20318;-70
2021/04/20 02:02:47;;;;;;;7.50;4.90;;;10.60;93.00;;;;;;5089726;28;20661;-69
2021/04/20 02:05:14;;;;;;;8.53;4.87;;;10.60;93.00;;;;;;5079514;28;20289;-68
2021/04/20 02:07:42;;;;;;;5.93;4.87;;;10.50;93.10;;;;;;5091591;28;20204;-69
2021/04/20 02:10:10;;;;;;;6.80;4.77;;;10.50;93.20;;;;;;5074540;28;20263;-69
2021/04/20 02:12:38;;;;;;;7.73;5.17;;;10.50;93.40;;;;;;5083869;28;20257;-68
2021/04/20 02:15:06;;;;;;;7.20;4.93;;;10.50;93.50;;;;;;5082999;28;20700;-70
2021/04/20 02:17:34;;;;;;;8.13;5.03;;;10.50;93.70;;;;;;5086956;28;20205;-68
2021/04/20 02:20:01;;;;;;;6.47;4.70;;;10.40;93.90;;;;;;5082355;28;20233;-68
2021/04/20 02:22:28;;;;;;;7.17;5.37;;;10.40;94.10;;;;;;5087423;28;20208;-69
2021/04/20 02:24:54;;;;;;;8.60;6.23;;;10.40;94.40;;;;;;5075846;28;20229;-69
2021/04/20 02:27:21;;;;;;;7.10;5.07;;;10.40;94.40;;;;;;5083582;28;20243;-68
2021/04/20 02:29:47;;;;;;;7.23;5.37;;;10.40;94.70;;;;;;5075326;28;20233;-68
2021/04/20 02:32:14;;;;;;;5.77;5.13;;;10.40;94.90;;;;;;5088120;28;20543;-68
2021/04/20 02:34:41;;;;;;;10.33;5.70;;;10.30;95.10;;;;;;5077127;28;20203;-69
2021/04/20 02:37:08;;;;;;;8.10;5.93;;;10.30;95.20;;;;;;5083332;28;20208;-68
2021/04/20 02:39:34;;;;;;;12.07;5.90;;;10.30;95.50;;;;;;5083414;28;20577;-68
2021/04/20 02:42:01;;;;;;;12.23;6.70;;;10.30;95.70;;;;;;5087395;28;20583;-68
2021/04/20 02:44:28;;;;;;;8.27;6.23;;;10.30;96.10;;;;;;5080997;28;20698;-69
2021/04/20 02:46:59;;;;;;;8.33;6.37;;;10.30;96.50;;;;;;5082544;28;20213;-68
2021/04/20 02:49:26;;;;;;;10.70;6.70;;;10.30;96.90;;;;;;5084644;28;20196;-68
2021/04/20 02:51:54;;;;;;;12.77;7.13;;;10.20;97.30;;;;;;5089042;28;20695;-69
2021/04/20 02:54:20;;;;;;;10.40;6.83;;;10.20;97.70;;;;;;5077678;28;20201;-70
2021/04/20 02:56:48;;;;;;;10.60;6.80;;;10.20;98.10;;;;;;5078239;28;20551;-69
2021/04/20 02:59:15;;;;;;;9.90;7.17;;;10.10;98.50;;;;;;5082176;28;20219;-68
2021/04/20 03:01:43;;;;;;;8.57;6.23;;;10.10;99.00;;;;;;5089817;28;20621;-69
2021/04/20 03:04:13;;;;;;;11.63;7.03;;;10.10;99.40;;;;;;5082796;28;20216;-68
2021/04/20 03:06:41;;;;;;;9.23;6.77;;;10.10;99.90;;;;;;5083771;28;20204;-69
2021/04/20 03:09:09;;;;;;;10.60;7.00;;;10.00;99.90;;;;;;5083742;28;20601;-69
2021/04/20 03:11:40;;;;;;;8.33;6.50;;;10.00;99.90;;;;;;5089218;28;20200;-68
2021/04/20 03:14:06;;;;;;;8.97;6.67;;;10.00;99.90;;;;;;5081162;28;20241;-69
2021/04/20 03:16:34;;;;;;;8.10;6.83;;;10.00;99.90;;;;;;5074427;28;20207;-68
2021/04/20 03:19:02;;;;;;;10.40;7.33;;;9.90;99.90;;;;;;5085360;28;20197;-68
2021/04/20 03:21:29;;;;;;;9.57;7.17;;;9.90;99.90;;;;;;5080358;28;20214;-68
2021/04/20 03:23:56;;;;;;;11.20;7.43;;;9.90;99.90;;;;;;5084565;28;20224;-68
2021/04/20 03:26:40;;;;;;;8.73;6.57;;;9.90;99.90;;;;;;5082164;28;20543;-68
2021/04/20 03:29:09;;;;;;;11.70;6.90;;;9.90;99.90;;;;;;5078318;28;20235;-67
2021/04/20 03:31:40;;;;;;;10.97;7.37;;;9.90;99.90;;;;;;5087655;28;20570;-70
2021/04/20 03:34:16;;;;;;;11.53;6.97;;;9.90;99.90;;;;;;5077244;28;20288;-69
2021/04/20 03:36:46;;;;;;;12.77;6.70;;;9.90;99.90;;;;;;5080626;28;20224;-68
2021/04/20 03:39:16;;;;;;;9.87;6.70;;;9.90;99.90;;;;;;5083773;28;20212;-70
2021/04/20 03:41:50;;;;;;;8.77;6.47;;;9.80;99.90;;;;;;5090198;28;20215;-70
2021/04/20 03:44:22;;;;;;;12.23;7.00;;;9.80;99.90;;;;;;5078519;28;20216;-70
2021/04/20 03:46:51;;;;;;;8.77;6.80;;;9.80;99.90;;;;;;5080014;28;20565;-69
2021/04/20 03:49:23;;;;;;;12.23;7.43;;;9.70;99.90;;;;;;5071509;28;20284;-68
2021/04/20 03:51:52;;;;;;;10.80;7.10;;;9.70;99.90;;;;;;5084549;28;20255;-69
2021/04/20 03:54:21;;;;;;;9.53;6.90;;;9.70;99.90;;;;;;5083280;28;20199;-69
2021/04/20 03:56:51;;;;;;;10.47;7.27;;;9.60;99.90;;;;;;5087106;28;20654;-69
2021/04/20 03:59:19;;;;;;;11.50;6.83;;;9.60;99.90;;;;;;5082429;28;20220;-69
2021/04/20 04:01:49;;;;;;;11.07;7.23;;;9.60;99.90;;;;;;5088653;28;20573;-68
2021/04/20 04:04:17;;;;;;;11.00;6.87;;;9.60;99.90;;;;;;5076732;28;20272;-68
2021/04/20 04:06:45;;;;;;;7.27;6.37;;;9.50;99.90;;;;;;5085031;28;20208;-69
2021/04/20 04:09:13;;;;;;;11.07;7.20;;;9.50;99.90;;;;;;5089432;28;20720;-70
2021/04/20 04:11:45;;;;;;;11.37;6.97;;;9.50;99.90;;;;;;5083742;28;20204;-69
2021/04/20 04:14:17;;;;;;;11.00;6.70;;;9.50;99.90;;;;;;5085676;28;20634;-69
2021/04/20 04:16:45;;;;;;;8.63;6.80;;;9.50;99.90;;;;;;5081168;28;20208;-69
2021/04/20 04:19:13;;;;;;;10.03;6.67;;;9.50;99.90;;;;;;5091142;28;20211;-69
2021/04/20 04:21:46;;;;;;;11.70;6.67;;;9.50;99.90;;;;;;5087062;28;20342;-68
2021/04/20 04:24:15;;;;;;;8.67;6.67;;;9.50;99.90;;;;;;5089055;28;20209;-69
2021/04/20 04:26:46;;;;;;;12.83;7.57;;;9.50;99.90;;;;;;5085371;28;20568;-70
2021/04/20 04:29:14;;;;;;;11.30;7.00;;;9.50;99.90;;;;;;5087247;28;20232;-69
2021/04/20 04:31:44;;;;;;;9.37;6.63;;;9.50;99.90;;;;;;5080115;28;20205;-69
2021/04/20 04:34:12;;;;;;;10.40;6.83;;;9.60;99.90;;;;;;5089756;28;20231;-70
2021/04/20 04:36:40;;;;;;;8.60;6.30;;;9.60;99.90;;;;;;5083805;28;20283;-70
2021/04/20 04:39:09;;;;;;;9.10;6.13;;;9.70;99.90;;;;;;5086040;28;20288;-68
2021/04/20 04:41:36;;;;;;;8.93;6.03;;;9.80;99.90;;;;;;5087194;28;20276;-68
2021/04/20 04:44:02;;;;;;;9.77;6.30;;;9.80;99.90;;;;;;5088286;28;20224;-69
2021/04/20 04:46:30;;;;;;;9.47;6.73;;;9.90;99.90;;;;;;5090396;28;20207;-69
2021/04/20 04:48:57;;;;;;;9.50;6.13;;;9.90;99.90;;;;;;5078787;28;20212;-69
2021/04/20 04:51:26;;;;;;;9.97;6.80;;;10.00;99.90;;;;;;5083502;28;20291;-69
2021/04/20 04:53:53;;;;;;;10.33;6.50;;;10.10;99.90;;;;;;5082538;28;20244;-71
2021/04/20 04:56:21;;;;;;;9.13;6.07;;;10.10;99.90;;;;;;5088776;28;20209;-69
2021/04/20 04:58:51;;;;;;;11.73;5.33;;;10.20;99.90;;;;;;5081217;28;20201;-69
2021/04/20 05:01:18;;;;;;;13.33;6.37;;;10.30;99.90;;;;;;5078866;28;20709;-70
2021/04/20 05:03:45;;;;;;;9.73;6.10;;;10.30;99.90;;;;;;5071543;28;20217;-70
2021/04/20 05:06:14;;;;;;;10.53;6.07;;;10.40;99.90;;;;;;5076898;28;20228;-69
2021/04/20 05:08:41;;;;;;;8.30;5.70;;;10.50;99.90;;;;;;5084860;28;20300;-69
2021/04/20 05:11:07;;;;;;;8.40;5.77;;;10.60;99.90;;;;;;5086892;28;20236;-69
2021/04/20 05:13:34;;;;;;;7.37;5.70;;;10.70;99.90;;;;;;5080380;28;20737;-68
2021/04/20 05:16:05;;;;;;;8.67;5.83;;;10.80;99.90;;;;;;5084283;28;20390;-69
2021/04/20 05:18:31;;;;;;;12.00;6.40;;;10.90;99.90;;;;;;5080176;28;20227;-68
2021/04/20 05:20:59;;;;;;;10.30;5.70;;;11.00;99.90;;;;;;5084808;28;20196;-70
2021/04/20 05:23:25;;;;;;;9.13;5.47;;;11.10;99.90;;;;;;5076916;28;20212;-69
2021/04/20 05:25:52;;;;;;;8.73;5.70;;;11.20;99.50;;;;;;5081094;28;20253;-70
2021/04/20 05:28:18;;;;;;;9.20;5.83;;;11.30;99.10;;;;;;5079128;28;20260;-68
2021/04/20 05:30:45;;;;;;;9.03;5.63;;;11.40;98.90;;;;;;5082950;28;20977;-68
2021/04/20 05:33:14;;;;;;;10.77;5.73;;;11.50;98.70;;;;;;5077746;28;20209;-68
2021/04/20 05:35:41;;;;;;;7.67;5.57;;;11.60;98.30;;;;;;5086137;28;20197;-69
2021/04/20 05:38:08;;;;;;;9.50;5.23;;;11.60;97.70;;;;;;5092192;28;20294;-69
2021/04/20 05:40:39;;;;;;;7.37;5.93;;;11.80;97.20;;;;;;5079236;28;20229;-68
2021/04/20 05:43:06;;;;;;;10.53;5.70;;;11.90;96.40;;;;;;5084411;28;20706;-69
2021/04/20 05:45:33;;;;;;;7.87;5.90;;;12.00;95.80;;;;;;5087673;28;20221;-70
2021/04/20 05:48:00;;;;;;;9.97;5.57;;;12.00;95.40;;;;;;5089582;28;20574;-68
2021/04/20 05:50:28;;;;;;;9.37;5.67;;;12.10;95.10;;;;;;5081003;28;20291;-70
2021/04/20 05:52:55;;;;;;;8.57;5.07;;;12.20;94.80;;;;;;5091301;28;20262;-69
2021/04/20 05:55:23;;;;;;;8.50;5.20;;;12.30;94.00;;;;;;5082741;28;20204;-69
2021/04/20 05:57:52;;;;;;;6.90;5.47;;;12.40;93.20;;;;;;5079790;28;20622;-67
2021/04/20 06:00:21;;;;;;;9.17;5.23;;;12.40;93.00;;;;;;5074141;28;20240;-70
2021/04/20 06:02:52;;;;;;;6.70;4.97;;;12.40;92.60;;;;;;5074931;28;20717;-68
2021/04/20 06:05:22;;;;;;;9.03;5.80;;;12.40;92.50;;;;;;5065568;28;20609;-71
2021/04/20 06:07:51;;;;;;;9.67;5.97;;;12.50;92.60;;;;;;5078078;28;21680;-68
2021/04/20 06:10:18;;;;;;;10.77;5.97;;;12.60;92.60;;;;;;5083352;28;20228;-70
2021/04/20 06:12:47;;;;;;;8.77;5.23;;;12.70;92.10;;;;;;5073019;28;20213;-69
2021/04/20 06:15:15;;;;;;;12.27;5.80;;;12.80;91.70;;;;;;5072301;28;20313;-70
2021/04/20 06:17:42;;;;;;;6.90;5.03;;;12.90;91.00;;;;;;5071730;28;20213;-71
2021/04/20 06:20:11;;;;;;;14.80;6.03;;;12.90;90.40;;;;;;5072437;28;20254;-70
2021/04/20 06:22:40;;;;;;;9.93;6.00;;;13.00;90.10;;;;;;5072415;28;20213;-71
2021/04/20 06:25:10;;;;;;;9.13;5.30;;;13.10;89.60;;;;;;5071556;28;20220;-71
2021/04/20 06:27:37;;;;;;;9.97;5.50;;;13.20;88.20;;;;;;5074692;28;20280;-71
2021/04/20 06:30:06;;;;;;;10.57;4.77;;;13.30;87.30;;;;;;5074870;28;20205;-70
2021/04/20 06:32:35;;;;;;;9.97;5.20;;;13.30;86.30;;;;;;5074175;28;20262;-70
2021/04/20 06:35:01;;;;;;;8.80;4.23;;;13.40;85.80;;;;;;5069799;28;20212;-69
2021/04/20 06:37:29;;;;;;;6.03;3.80;;;13.50;85.20;;;;;;5073621;28;20209;-70
2021/04/20 06:39:56;;;;;;;5.67;3.63;;;13.60;83.50;;;;;;5073698;28;20221;-70
2021/04/20 06:42:25;;;;;;;6.90;3.93;;;13.70;81.60;;;;;;5074595;28;20281;-69
2021/04/20 06:44:59;;;;;;;6.50;4.27;;;13.70;80.10;;;;;;5073023;28;20298;-70
2021/04/20 06:47:33;;;;;;;7.87;3.50;;;13.80;78.50;;;;;;5073913;28;20667;-70
2021/04/20 06:50:03;;;;;;;6.03;3.70;;;13.90;77.50;;;;;;5073196;28;20208;-69
2021/04/20 06:52:32;;;;;;;4.87;3.93;;;13.90;75.90;;;;;;5074060;28;20209;-70
2021/04/20 06:55:05;;;;;;;6.50;4.53;;;14.00;75.80;;;;;;5073237;28;20233;-70
2021/04/20 06:57:38;;;;;;;8.97;4.40;;;14.10;75.60;;;;;;5074722;28;20718;-70
2021/04/20 07:00:09;;;;;;;10.47;5.30;;;14.20;74.60;;;;;;5071998;28;20642;-69
2021/04/20 07:02:47;;;;;;;7.90;4.60;;;14.20;74.00;;;;;;5074503;28;20283;-68
2021/04/20 07:05:18;;;;;;;7.20;4.33;;;14.50;73.90;;;;;;5071041;28;20213;-66
2021/04/20 07:08:02;;;;;;;7.13;4.93;;;14.50;73.50;;;;;;5070971;28;20619;-69
2021/04/20 07:10:33;;;;;;;5.93;4.27;;;14.60;72.60;;;;;;5075240;28;20265;-69
2021/04/20 07:13:04;;;;;;;5.70;4.03;;;14.70;71.70;;;;;;5073143;28;20235;-68
2021/04/20 07:15:32;;;;;;;8.47;4.27;;;14.80;70.60;;;;;;5073896;28;20201;-73
2021/04/20 07:18:17;;;;;;;6.40;4.13;;;14.90;70.10;;;;;;5073018;28;20216;-72
2021/04/20 07:20:54;;;;;;;4.87;4.30;;;15.00;68.90;;;;;;5071245;28;20562;-71
2021/04/20 07:23:50;;;;;;;5.50;4.77;;;15.10;68.80;;;;;;5061910;28;20201;-70
2021/04/20 07:26:34;;;;;;;4.03;3.57;;;15.30;67.30;;;;;;5070667;28;20209;-71
2021/04/20 07:29:26;;;;;;;8.40;4.40;;;15.50;66.40;;;;;;5073765;28;20658;-72
2021/04/20 07:32:04;;;;;;;6.87;4.60;;;15.70;65.50;;;;;;5071617;28;20205;-73
2021/04/20 07:34:38;;;;;;;6.87;3.77;;;15.90;64.10;;;;;;5065655;28;20205;-73
2021/04/20 07:37:23;;;;;;;7.87;4.70;;;16.00;62.90;;;;;;5073619;28;20273;-71
2021/04/20 07:40:02;;;;;;;5.63;4.90;;;16.00;62.10;;;;;;5074261;28;20212;-72
2021/04/20 07:42:40;;;;;;;5.93;4.27;;;15.90;61.90;;;;;;5067322;28;20206;-68
2021/04/20 07:45:14;;;;;;;6.93;4.67;;;16.00;62.70;;;;;;5073925;28;20736;-70
2021/04/20 07:47:46;;;;;;;8.50;4.47;;;16.10;62.50;;;;;;5079903;28;20196;-70
2021/04/20 07:50:17;;;;;;;8.30;5.60;;;16.30;63.00;;;;;;5071629;28;20220;-70
2021/04/20 07:52:50;;;;;;;6.20;4.23;;;16.50;61.80;;;;;;5082511;28;20287;-70
2021/04/20 07:55:20;;;;;;;4.67;4.13;;;16.60;60.00;;;;;;5068767;28;20200;-68
2021/04/20 07:57:54;;;;;;;8.00;5.40;;;16.60;59.00;;;;;;5077650;28;20209;-67
2021/04/20 08:00:26;;;;;;;5.80;4.70;;;16.60;58.80;;;;;;5077491;28;20631;-68
2021/04/20 08:02:57;;;;;;;6.30;4.27;;;16.70;58.90;;;;;;5075773;28;20193;-69
2021/04/20 08:05:28;;;;;;;6.83;4.13;;;16.80;58.50;;;;;;5082222;28;20297;-68
2021/04/20 08:08:00;;;;;;;5.87;3.60;;;16.90;57.90;;;;;;5076693;28;20649;-68
2021/04/20 08:10:33;;;;;;;5.70;3.93;;;17.00;58.00;;;;;;5086082;28;20217;-67
2021/04/20 08:13:04;;;;;;;6.57;3.97;;;17.10;57.10;;;;;;5081612;28;20657;-67
2021/04/20 08:15:36;;;;;;;5.03;3.73;;;17.00;56.60;;;;;;5089716;28;20199;-67
2021/04/20 08:18:07;;;;;;;4.60;3.70;;;17.10;56.90;;;;;;5077863;28;20709;-68
2021/04/20 08:20:38;;;;;;;4.33;3.30;;;17.30;58.00;;;;;;5081143;28;20201;-68
2021/04/20 08:23:06;;;;;;;6.53;3.77;;;17.60;59.20;;;;;;5072579;28;20658;-70
2021/04/20 08:25:39;;;;;;;5.68;3.67;;;17.80;58.30;;;;;;5072382;28;20318;-69
2021/04/20 08:28:16;;;;;;;5.73;3.30;;;18.00;55.60;;;;;;5070639;28;20240;-70
2021/04/20 08:30:47;;;;;;;5.50;3.70;;;18.00;54.40;;;;;;5069628;28;20208;-70
2021/04/20 08:33:17;;;;;;;6.37;3.93;;;18.20;53.90;;;;;;5066718;28;20193;-72
2021/04/20 08:35:49;;;;;;;5.70;4.17;;;18.40;52.20;;;;;;5073100;28;20205;-70
2021/04/20 08:38:29;;;;;;;5.50;3.88;;;18.30;52.10;;;;;;5072220;28;20228;-70
2021/04/20 08:41:05;;;;;;;5.17;3.40;;;18.40;52.40;;;;;;5077313;28;20201;-71
2021/04/20 08:43:44;;;;;;;3.83;2.97;;;18.50;51.80;;;;;;5080745;28;20654;-71
2021/04/20 08:46:30;;;;;;;4.63;3.67;;;18.60;51.80;;;;;;5066630;28;20240;-71
2021/04/20 08:49:04;;;;;;;5.20;3.80;;;18.70;51.90;;;;;;5071157;28;20236;-71
2021/04/20 08:51:39;;;;;;;4.97;3.80;;;18.80;51.70;;;;;;5074777;28;20284;-72
2021/04/20 08:54:17;;;;;;;4.60;3.60;;;19.00;50.90;;;;;;5077844;28;20242;-71
2021/04/20 08:56:49;;;;;;;4.10;3.50;;;19.00;50.60;;;;;;5073690;28;20232;-71
2021/04/20 08:59:53;;;;;;;7.22;4.57;;;19.10;50.50;;;;;;5076480;28;20213;-73
2021/04/20 09:02:29;;;;;;;4.03;3.63;;;19.10;49.90;;;;;;5028958;28;20374;-71
2021/04/20 09:05:16;;;;;;;4.07;3.17;;;19.10;50.00;;;;;;5062457;28;20217;-69
2021/04/20 09:08:09;;;;;;;5.77;3.67;;;19.10;50.20;;;;;;5084855;28;20205;-69
2021/04/20 09:10:43;;;;;;;4.65;4.00;;;19.20;50.00;;;;;;5072359;28;20219;-71
2021/04/20 09:13:14;;;;;;;5.00;4.30;;;19.30;49.40;;;;;;5065758;28;20201;-70
2021/04/20 09:15:45;;;;;;;4.40;3.33;;;19.40;49.60;;;;;;5078184;28;20209;-71
2021/04/20 09:18:16;;;;;;;5.32;3.72;;;19.60;49.60;;;;;;5076365;28;20205;-68
2021/04/20 09:20:52;;;;;;;6.30;3.40;;;19.90;49.40;;;;;;5077546;28;20205;-69
2021/04/20 09:23:38;;;;;;;4.88;3.60;;;20.30;48.80;;;;;;5073336;28;20205;-70
2021/04/20 09:26:20;;;;;;;5.35;3.58;;;20.60;47.40;;;;;;5076252;28;20223;-70
2021/04/20 09:28:59;;;;;;;4.32;3.78;;;20.50;46.90;;;;;;5076391;28;20755;-70
2021/04/20 09:31:32;;;;;;;4.63;3.80;;;20.50;47.80;;;;;;5076318;28;20205;-70
2021/04/20 09:34:01;;;;;;;4.40;3.97;;;20.60;47.30;;;;;;5076023;28;20205;-69
2021/04/20 09:36:29;;;;;;;4.72;4.03;;;20.70;47.30;;;;;;5090009;28;20209;-69
2021/04/20 09:39:00;;;;;;;4.82;3.90;;;20.90;47.20;;;;;;5085523;28;20209;-70
2021/04/20 09:41:28;;;;;;;4.78;4.00;;;20.70;46.30;;;;;;5077252;28;20209;-71
2021/04/20 09:44:07;;;;;;;6.25;4.28;;;20.50;46.50;;;;;;5087394;28;20205;-70
2021/04/20 09:46:38;;;;;;;5.93;4.05;;;20.30;46.60;;;;;;5074593;28;20215;-70
2021/04/20 09:49:12;;;;;;;4.80;4.30;;;20.30;46.80;;;;;;5082891;28;20275;-70
2021/04/20 09:51:52;;;;;;;6.18;4.28;;;20.40;46.60;;;;;;5070778;28;20198;-70
2021/04/20 09:54:25;;;;;;;6.38;4.78;;;20.60;46.40;;;;;;5075985;28;20189;-72
2021/04/20 09:56:53;;;;;;;7.35;4.10;;;20.80;46.10;;;;;;5062926;28;20209;-70
2021/04/20 09:59:24;;;;;;;7.43;4.82;;;21.00;45.80;;;;;;5075369;28;20284;-71
2021/04/20 10:02:04;;;;;;;7.28;4.57;;;21.30;45.00;;;;;;5076403;28;20714;-70
2021/04/20 10:04:48;;;;;;;6.15;4.70;;;21.60;44.20;;;;;;5073719;28;20236;-71
2021/04/20 10:07:31;;;;;;;4.88;4.38;;;21.70;44.60;;;;;;5072049;28;20227;-70
2021/04/20 10:10:06;;;;;;;5.60;4.47;;;21.80;44.40;;;;;;5076100;28;20208;-71
2021/04/20 10:12:58;;;;;;;8.07;4.45;;;22.00;44.10;;;;;;5065974;28;20562;-70
2021/04/20 10:15:28;;;;;;;6.72;5.22;;;22.10;44.40;;;;;;5063900;28;20546;-70
2021/04/20 10:18:03;;;;;;;6.03;5.13;;;22.40;43.60;;;;;;5073367;28;20206;-70
2021/04/20 10:20:37;;;;;;;6.43;4.47;;;22.60;43.00;;;;;;5075721;28;20223;-71
2021/04/20 10:23:13;;;;;;;5.50;5.00;;;22.80;42.90;;;;;;5073765;28;20284;-72
2021/04/20 10:25:48;;;;;;;7.03;4.57;;;22.70;41.40;;;;;;5076325;28;20221;-70
2021/04/20 10:28:24;;;;;;;7.82;4.93;;;22.50;42.10;;;;;;5069753;28;20241;-70
2021/04/20 10:30:55;;;;;;;6.13;4.13;;;22.50;42.10;;;;;;5068179;28;20197;-72
2021/04/20 10:33:24;;;;;;;5.82;4.30;;;22.40;41.90;;;;;;5075860;28;20216;-72
2021/04/20 10:35:56;;;;;;;5.50;4.03;;;22.20;41.30;;;;;;5075792;28;20443;-71
2021/04/20 10:38:28;;;;;;;6.93;4.28;;;21.90;40.70;;;;;;5074992;28;20665;-72
2021/04/20 10:40:56;;;;;;;6.55;4.60;;;21.60;40.80;;;;;;5073029;28;20772;-71
2021/04/20 10:43:25;;;;;;;5.55;4.80;;;21.30;41.20;;;;;;5072864;28;20272;-70
2021/04/20 10:45:53;;;;;;;9.27;4.35;;;21.00;41.90;;;;;;5073177;28;20744;-70
2021/04/20 10:48:24;;;;;;;7.25;4.65;;;20.80;42.30;;;;;;5074341;28;20205;-68
2021/04/20 10:50:54;;;;;;;5.20;4.15;;;20.70;42.90;;;;;;5073512;28;20681;-68
2021/04/20 10:53:22;;;;;;;5.03;4.15;;;20.90;42.90;;;;;;5070250;28;20231;-69
2021/04/20 10:55:53;;;;;;;6.63;4.60;;;21.00;42.30;;;;;;5074812;28;20251;-70
2021/04/20 10:58:26;;;;;;;6.10;4.55;;;21.20;41.90;;;;;;5073427;28;20227;-69
2021/04/20 11:00:54;;;;;;;7.90;5.15;;;21.30;41.60;;;;;;5070213;28;20300;-69
2021/04/20 11:03:23;;;;;;;4.88;4.40;;;21.20;41.40;;;;;;5074656;28;20681;-69
2021/04/20 11:05:50;;;;;;;5.32;4.82;;;21.00;41.40;;;;;;5068847;28;20282;-71
2021/04/20 11:08:23;;;;;;;5.75;4.80;;;21.00;40.40;;;;;;5061785;28;20213;-70
2021/04/20 11:10:50;;;;;;;5.07;4.20;;;20.80;39.50;;;;;;5069040;28;20284;-70
2021/04/20 11:13:16;;;;;;;3.97;3.58;;;20.70;39.70;;;;;;5074145;28;20263;-70
2021/04/20 11:15:45;;;;;;;4.60;3.75;;;20.70;39.70;;;;;;5060004;28;20210;-70
2021/04/20 11:18:14;;;;;;;4.65;4.18;;;20.60;39.80;;;;;;5073075;28;20251;-71
2021/04/20 11:20:43;;;;;;;5.32;4.05;;;20.60;39.80;;;;;;5073417;28;20702;-71
2021/04/20 11:23:23;;;;;;;5.63;4.53;;;20.50;40.00;;;;;;5073973;28;20213;-71
2021/04/20 11:26:09;;;;;;;6.38;4.50;;;20.50;40.30;;;;;;5074137;28;20274;-70
2021/04/20 11:28:46;;;;;;;4.90;4.22;;;20.40;40.30;;;;;;5061784;28;20248;-72
2021/04/20 11:31:25;;;;;;;5.07;4.57;;;20.20;40.50;;;;;;5073727;28;20201;-71
2021/04/20 11:33:56;;;;;;;8.63;5.45;;;20.10;40.90;;;;;;5075080;28;20209;-73
2021/04/20 11:36:26;;;;;;;4.50;4.07;;;19.90;41.50;;;;;;5074134;28;20225;-71
2021/04/20 11:38:54;;;;;;;5.45;4.60;;;19.70;41.80;;;;;;5073045;28;20292;-71
2021/04/20 11:41:27;;;;;;;6.65;4.82;;;19.60;42.30;;;;;;5072684;28;20297;-74
2021/04/20 11:43:57;;;;;;;6.07;4.13;;;19.40;42.50;;;;;;5072120;28;20244;-73
2021/04/20 11:46:26;;;;;;;4.57;4.07;;;19.30;42.60;;;;;;5073359;28;20204;-69
2021/04/20 11:48:57;;;;;;;6.05;5.00;;;19.30;42.80;;;;;;5073542;28;20209;-72
2021/04/20 11:51:34;;;;;;;5.47;4.40;;;19.20;43.00;;;;;;5069979;28;20201;-71
2021/04/20 11:54:02;;;;;;;6.72;4.50;;;19.10;43.20;;;;;;5080946;28;20228;-72
2021/04/20 11:56:36;;;;;;;7.53;4.78;;;19.00;43.60;;;;;;5076517;28;20681;-72
2021/04/20 11:59:03;;;;;;;6.45;4.22;;;18.90;44.00;;;;;;5083870;28;20209;-72
2021/04/20 12:01:33;;;;;;;5.75;4.82;;;18.90;44.30;;;;;;5077689;28;20265;-71
2021/04/20 12:04:02;;;;;;;9.02;4.90;;;18.90;44.60;;;;;;5078945;28;20625;-72
2021/04/20 12:06:41;;;;;;;5.20;4.50;;;18.80;44.80;;;;;;5083602;28;20216;-71
2021/04/20 12:09:08;;;;;;;7.95;5.07;;;18.70;44.80;;;;;;5078553;28;20258;-71
2021/04/20 12:11:35;;;;;;;7.32;4.85;;;18.60;45.20;;;;;;5072952;28;20656;-72
2021/04/20 12:14:02;;;;;;;8.85;5.32;;;18.60;45.60;;;;;;5076459;28;20231;-72
2021/04/20 12:16:35;;;;;;;7.20;5.25;;;18.50;45.90;;;;;;5073677;28;20716;-73
2021/04/20 12:19:08;;;;;;;7.40;4.63;;;18.40;46.30;;;;;;5076432;28;20236;-72
2021/04/20 12:21:38;;;;;;;8.25;5.28;;;18.20;46.00;;;;;;5071062;28;20200;-71
2021/04/20 12:24:08;;;;;;;7.28;4.93;;;18.10;46.60;;;;;;5080535;28;20611;-71
2021/04/20 12:26:35;;;;;;;6.35;5.18;;;18.00;46.90;;;;;;5080773;28;20308;-70
2021/04/20 12:29:10;;;;;;;8.20;5.57;;;18.00;46.80;;;;;;5076208;28;20260;-70
2021/04/20 12:31:38;;;;;;;7.03;4.50;;;18.00;46.50;;;;;;5072730;28;20672;-72
2021/04/20 12:34:05;;;;;;;7.95;4.38;;;18.10;46.20;;;;;;5088839;28;20789;-68
2021/04/20 12:36:34;;;;;;;6.00;4.50;;;18.30;46.00;;;;;;5075315;28;20213;-70
2021/04/20 12:39:02;;;;;;;9.55;6.55;;;18.50;46.40;;;;;;5081026;28;20660;-70
2021/04/20 12:41:32;;;;;;;5.30;4.37;;;18.60;46.10;;;;;;5081531;28;20213;-70
2021/04/20 12:44:02;;;;;;;4.33;3.93;;;18.80;46.70;;;;;;5087243;28;20205;-70
2021/04/20 12:46:31;;;;;;;6.45;4.50;;;19.10;46.10;;;;;;5086044;28;20204;-72
2021/04/20 12:49:04;;;;;;;8.90;4.85;;;19.40;44.50;;;;;;5088986;28;20215;-72
2021/04/20 12:51:34;;;;;;;5.75;4.25;;;19.60;44.40;;;;;;5079811;28;20762;-72
2021/04/20 12:54:04;;;;;;;4.70;4.13;;;20.00;43.70;;;;;;5086742;28;20258;-71
2021/04/20 12:56:39;;;;;;;4.53;4.13;;;20.40;42.50;;;;;;5083649;28;20220;-73
2021/04/20 12:59:14;;;;;;;5.63;3.72;;;20.80;41.50;;;;;;5086760;28;20623;-70
2021/04/20 13:01:43;;;;;;;6.13;4.07;;;21.20;40.20;;;;;;5081305;28;20571;-72